sensor_id;sensor_type;location;lat;lon;timestamp;pressure;altitude;pressure_sealevel;temperature;humidity
75219;BME280;63801;49.414;19.474;2022-10-16T00:00:38;94065.59;;;12.44;68.57
75219;BME280;63801;49.414;19.474;2022-10-16T00:02:38;94068.31;;;12.44;68.44
75219;BME280;63801;49.414;19.474;2022-10-16T00:04:39;94061.78;;;12.45;68.45
75219;BME280;63801;49.414;19.474;2022-10-16T00:06:39;94067.44;;;12.40;68.53
75219;BME280;63801;49.414;19.474;2022-10-16T00:08:40;94063.19;;;12.39;68.64
75219;BME280;63801;49.414;19.474;2022-10-16T00:10:40;94065.59;;;12.44;68.83
75219;BME280;63801;49.414;19.474;2022-10-16T00:12:41;94050.81;;;12.38;68.78
75219;BME280;63801;49.414;19.474;2022-10-16T00:14:41;94042.44;;;12.43;68.76
75219;BME280;63801;49.414;19.474;2022-10-16T00:16:43;94065.53;;;12.40;68.76
75219;BME280;63801;49.414;19.474;2022-10-16T00:18:44;94066.75;;;12.43;68.74
75219;BME280;63801;49.414;19.474;2022-10-16T00:20:44;94067.19;;;12.45;68.58
75219;BME280;63801;49.414;19.474;2022-10-16T00:22:44;94065.25;;;12.45;68.88
75219;BME280;63801;49.414;19.474;2022-10-16T00:24:45;94066.03;;;12.46;68.58
75219;BME280;63801;49.414;19.474;2022-10-16T00:26:45;94072.59;;;12.45;68.61
75219;BME280;63801;49.414;19.474;2022-10-16T00:28:47;94072.16;;;12.43;68.98
75219;BME280;63801;49.414;19.474;2022-10-16T00:30:47;94070.59;;;12.42;68.64
75219;BME280;63801;49.414;19.474;2022-10-16T00:32:48;94061.63;;;12.38;68.67
75219;BME280;63801;49.414;19.474;2022-10-16T00:34:48;94057.16;;;12.45;68.58
75219;BME280;63801;49.414;19.474;2022-10-16T00:36:48;94069.19;;;12.48;68.79
75219;BME280;63801;49.414;19.474;2022-10-16T00:38:54;94069.63;;;12.50;68.33
75219;BME280;63801;49.414;19.474;2022-10-16T00:40:55;94087.69;;;12.46;68.30
75219;BME280;63801;49.414;19.474;2022-10-16T00:42:55;94093.53;;;12.48;68.80
75219;BME280;63801;49.414;19.474;2022-10-16T00:44:57;94088.13;;;12.48;68.50
75219;BME280;63801;49.414;19.474;2022-10-16T00:46:57;94100.47;;;12.49;68.71
75219;BME280;63801;49.414;19.474;2022-10-16T00:49:04;94106.69;;;12.49;68.48
75219;BME280;63801;49.414;19.474;2022-10-16T00:51:06;94103.63;;;12.51;68.53
75219;BME280;63801;49.414;19.474;2022-10-16T00:53:07;94109.75;;;12.48;68.39
75219;BME280;63801;49.414;19.474;2022-10-16T00:55:09;94105.91;;;12.49;68.57
75219;BME280;63801;49.414;19.474;2022-10-16T00:57:09;94101.66;;;12.48;68.54
75219;BME280;63801;49.414;19.474;2022-10-16T00:59:23;94107.72;;;12.45;68.67
75219;BME280;63801;49.414;19.474;2022-10-16T01:01:24;94119.69;;;12.44;68.71
75219;BME280;63801;49.414;19.474;2022-10-16T01:03:29;94109.84;;;12.36;68.77
75219;BME280;63801;49.414;19.474;2022-10-16T01:05:44;94106.72;;;12.34;68.77
75219;BME280;63801;49.414;19.474;2022-10-16T01:08:00;94115.25;;;12.36;68.81
75219;BME280;63801;49.414;19.474;2022-10-16T01:10:27;94114.81;;;12.34;68.88
75219;BME280;63801;49.414;19.474;2022-10-16T01:12:45;94119.38;;;12.30;69.03
75219;BME280;63801;49.414;19.474;2022-10-16T01:14:58;94120.91;;;12.31;69.31
75219;BME280;63801;49.414;19.474;2022-10-16T01:17:04;94121.63;;;12.28;69.17
75219;BME280;63801;49.414;19.474;2022-10-16T01:19:13;94105.84;;;12.30;69.15
75219;BME280;63801;49.414;19.474;2022-10-16T01:21:32;94109.94;;;12.24;69.38
75219;BME280;63801;49.414;19.474;2022-10-16T01:26:43;94110.28;;;12.22;69.47
75219;BME280;63801;49.414;19.474;2022-10-16T01:30:58;94109.59;;;12.09;69.66
75219;BME280;63801;49.414;19.474;2022-10-16T01:33:03;94114.38;;;12.16;70.06
75219;BME280;63801;49.414;19.474;2022-10-16T01:35:11;94120.59;;;12.17;69.87
75219;BME280;63801;49.414;19.474;2022-10-16T01:37:19;94126.75;;;12.17;69.84
75219;BME280;63801;49.414;19.474;2022-10-16T01:39:23;94118.63;;;12.17;69.79
75219;BME280;63801;49.414;19.474;2022-10-16T01:41:32;94127.53;;;12.18;70.02
75219;BME280;63801;49.414;19.474;2022-10-16T01:43:37;94120.06;;;12.11;69.74
75219;BME280;63801;49.414;19.474;2022-10-16T01:45:40;94109.16;;;12.07;69.72
75219;BME280;63801;49.414;19.474;2022-10-16T01:47:41;94129.81;;;12.15;69.87
75219;BME280;63801;49.414;19.474;2022-10-16T01:49:44;94127.91;;;12.16;69.97
75219;BME280;63801;49.414;19.474;2022-10-16T01:51:48;94130.53;;;12.12;70.05
75219;BME280;63801;49.414;19.474;2022-10-16T01:53:53;94115.84;;;12.13;70.20
75219;BME280;63801;49.414;19.474;2022-10-16T01:55:55;94119.00;;;12.15;69.83
75219;BME280;63801;49.414;19.474;2022-10-16T01:57:59;94132.94;;;12.18;69.94
75219;BME280;63801;49.414;19.474;2022-10-16T02:00:05;94138.34;;;12.18;69.91
75219;BME280;63801;49.414;19.474;2022-10-16T02:02:09;94124.84;;;12.18;70.02
75219;BME280;63801;49.414;19.474;2022-10-16T02:04:23;94138.47;;;12.21;69.86
75219;BME280;63801;49.414;19.474;2022-10-16T02:06:24;94139.66;;;12.24;69.99
75219;BME280;63801;49.414;19.474;2022-10-16T02:08:27;94133.13;;;12.25;69.75
75219;BME280;63801;49.414;19.474;2022-10-16T02:10:28;94150.94;;;12.26;69.96
75219;BME280;63801;49.414;19.474;2022-10-16T02:12:33;94147.78;;;12.24;70.12
75219;BME280;63801;49.414;19.474;2022-10-16T02:14:38;94145.53;;;12.26;69.74
75219;BME280;63801;49.414;19.474;2022-10-16T02:16:41;94150.22;;;12.29;70.05
75219;BME280;63801;49.414;19.474;2022-10-16T02:18:42;94153.34;;;12.31;69.70
75219;BME280;63801;49.414;19.474;2022-10-16T02:21:10;94152.31;;;12.35;69.81
75219;BME280;63801;49.414;19.474;2022-10-16T02:23:16;94153.47;;;12.34;69.78
75219;BME280;63801;49.414;19.474;2022-10-16T02:25:40;94152.66;;;12.34;69.79
75219;BME280;63801;49.414;19.474;2022-10-16T02:27:55;94154.22;;;12.35;69.91
75219;BME280;63801;49.414;19.474;2022-10-16T02:30:04;94138.63;;;12.28;69.50
75219;BME280;63801;49.414;19.474;2022-10-16T02:32:09;94153.47;;;12.34;69.45
75219;BME280;63801;49.414;19.474;2022-10-16T02:34:10;94161.66;;;12.38;69.74
75219;BME280;63801;49.414;19.474;2022-10-16T02:36:12;94157.38;;;12.37;69.56
75219;BME280;63801;49.414;19.474;2022-10-16T02:38:14;94153.34;;;12.31;69.76
75219;BME280;63801;49.414;19.474;2022-10-16T02:40:15;94149.88;;;12.30;69.66
75219;BME280;63801;49.414;19.474;2022-10-16T02:42:17;94160.53;;;12.39;69.79
75219;BME280;63801;49.414;19.474;2022-10-16T02:44:18;94163.66;;;12.41;69.41
75219;BME280;63801;49.414;19.474;2022-10-16T02:46:18;94154.31;;;12.38;69.40
75219;BME280;63801;49.414;19.474;2022-10-16T02:48:19;94154.75;;;12.40;69.66
75219;BME280;63801;49.414;19.474;2022-10-16T02:50:19;94163.66;;;12.41;69.92
75219;BME280;63801;49.414;19.474;2022-10-16T02:52:19;94160.94;;;12.41;69.71
75219;BME280;63801;49.414;19.474;2022-10-16T02:54:20;94167.16;;;12.41;69.45
75219;BME280;63801;49.414;19.474;2022-10-16T02:56:20;94148.81;;;12.35;69.45
75219;BME280;63801;49.414;19.474;2022-10-16T02:58:20;94164.88;;;12.43;69.76
75219;BME280;63801;49.414;19.474;2022-10-16T03:00:22;94160.59;;;12.42;69.54
75219;BME280;63801;49.414;19.474;2022-10-16T03:02:22;94168.00;;;12.45;69.66
75219;BME280;63801;49.414;19.474;2022-10-16T03:04:22;94171.50;;;12.46;69.62
75219;BME280;63801;49.414;19.474;2022-10-16T03:06:23;94179.16;;;12.44;69.52
75219;BME280;63801;49.414;19.474;2022-10-16T03:08:23;94171.06;;;12.44;69.48
75219;BME280;63801;49.414;19.474;2022-10-16T03:10:25;94169.13;;;12.44;69.48
75219;BME280;63801;49.414;19.474;2022-10-16T03:12:26;94171.06;;;12.44;69.41
75219;BME280;63801;49.414;19.474;2022-10-16T03:14:27;94175.34;;;12.45;69.39
75219;BME280;63801;49.414;19.474;2022-10-16T03:16:27;94186.94;;;12.45;69.53
75219;BME280;63801;49.414;19.474;2022-10-16T03:18:27;94186.16;;;12.45;69.45
75219;BME280;63801;49.414;19.474;2022-10-16T03:20:28;94179.94;;;12.44;69.36
75219;BME280;63801;49.414;19.474;2022-10-16T03:22:28;94167.31;;;12.33;69.58
75219;BME280;63801;49.414;19.474;2022-10-16T03:24:28;94184.56;;;12.44;69.36
75219;BME280;63801;49.414;19.474;2022-10-16T03:26:29;94171.06;;;12.44;69.38
75219;BME280;63801;49.414;19.474;2022-10-16T03:28:29;94179.16;;;12.44;69.31
75219;BME280;63801;49.414;19.474;2022-10-16T03:30:29;94178.41;;;12.43;69.48
75219;BME280;63801;49.414;19.474;2022-10-16T03:32:29;94184.50;;;12.40;69.32
75219;BME280;63801;49.414;19.474;2022-10-16T03:34:30;94177.09;;;12.37;69.31
75219;BME280;63801;49.414;19.474;2022-10-16T03:36:30;94178.91;;;12.33;69.48
75219;BME280;63801;49.414;19.474;2022-10-16T03:38:31;94178.03;;;12.29;69.51
75219;BME280;63801;49.414;19.474;2022-10-16T03:40:31;94176.81;;;12.27;69.63
75219;BME280;63801;49.414;19.474;2022-10-16T03:42:32;94172.03;;;12.20;69.88
75219;BME280;63801;49.414;19.474;2022-10-16T03:44:32;94186.31;;;12.21;69.78
75219;BME280;63801;49.414;19.474;2022-10-16T03:46:32;94181.59;;;12.18;69.72
75219;BME280;63801;49.414;19.474;2022-10-16T03:48:33;94180.13;;;12.20;69.86
75219;BME280;63801;49.414;19.474;2022-10-16T03:50:33;94184.75;;;12.20;69.80
75219;BME280;63801;49.414;19.474;2022-10-16T03:52:33;94186.66;;;12.19;69.70
75219;BME280;63801;49.414;19.474;2022-10-16T03:54:34;94188.91;;;12.17;69.83
75219;BME280;63801;49.414;19.474;2022-10-16T03:56:34;94192.41;;;12.18;69.73
75219;BME280;63801;49.414;19.474;2022-10-16T03:58:34;94189.28;;;12.15;70.12
75219;BME280;63801;49.414;19.474;2022-10-16T04:00:34;94175.22;;;12.10;69.99
75219;BME280;63801;49.414;19.474;2022-10-16T04:02:35;94187.69;;;12.14;70.15
75219;BME280;63801;49.414;19.474;2022-10-16T04:04:35;94180.53;;;12.06;70.23
75219;BME280;63801;49.414;19.474;2022-10-16T04:06:36;94205.50;;;12.15;69.89
75219;BME280;63801;49.414;19.474;2022-10-16T04:08:36;94201.22;;;12.14;70.18
75219;BME280;63801;49.414;19.474;2022-10-16T04:10:36;94194.75;;;12.03;70.23
75219;BME280;63801;49.414;19.474;2022-10-16T04:12:37;94198.84;;;12.13;70.19
75219;BME280;63801;49.414;19.474;2022-10-16T04:14:37;94201.56;;;12.13;70.44
75219;BME280;63801;49.414;19.474;2022-10-16T04:16:37;94173.56;;;11.90;70.03
75219;BME280;63801;49.414;19.474;2022-10-16T04:18:37;94194.31;;;12.01;69.95
75219;BME280;63801;49.414;19.474;2022-10-16T04:20:38;94207.56;;;12.06;70.26
75219;BME280;63801;49.414;19.474;2022-10-16T04:22:38;94195.63;;;12.07;70.23
75219;BME280;63801;49.414;19.474;2022-10-16T04:24:39;94214.56;;;12.07;70.40
75219;BME280;63801;49.414;19.474;2022-10-16T04:26:39;94211.41;;;12.05;70.58
75219;BME280;63801;49.414;19.474;2022-10-16T04:28:39;94209.03;;;12.04;70.35
75219;BME280;63801;49.414;19.474;2022-10-16T04:30:40;94204.47;;;11.92;70.40
75219;BME280;63801;49.414;19.474;2022-10-16T04:32:40;94224.03;;;12.01;70.54
75219;BME280;63801;49.414;19.474;2022-10-16T04:34:41;94212.34;;;11.97;70.59
75219;BME280;63801;49.414;19.474;2022-10-16T04:36:41;94226.81;;;12.05;70.54
75219;BME280;63801;49.414;19.474;2022-10-16T04:38:41;94213.69;;;12.03;70.54
75219;BME280;63801;49.414;19.474;2022-10-16T04:40:42;94216.81;;;12.05;70.62
75219;BME280;63801;49.414;19.474;2022-10-16T04:42:42;94212.53;;;12.04;70.61
75219;BME280;63801;49.414;19.474;2022-10-16T04:44:43;94205.19;;;12.05;70.42
75219;BME280;63801;49.414;19.474;2022-10-16T04:46:43;94210.59;;;12.05;70.37
75219;BME280;63801;49.414;19.474;2022-10-16T04:48:44;94204.06;;;12.06;70.33
75219;BME280;63801;49.414;19.474;2022-10-16T04:50:45;94192.63;;;11.97;70.43
75219;BME280;63801;49.414;19.474;2022-10-16T04:52:45;94206.69;;;12.02;70.78
75219;BME280;63801;49.414;19.474;2022-10-16T04:54:45;94208.94;;;12.00;70.18
75219;BME280;63801;49.414;19.474;2022-10-16T04:56:46;94200.56;;;11.90;70.39
75219;BME280;63801;49.414;19.474;2022-10-16T04:58:50;94204.56;;;11.96;70.28
75219;BME280;63801;49.414;19.474;2022-10-16T05:00:51;94208.66;;;11.90;70.57
75219;BME280;63801;49.414;19.474;2022-10-16T05:02:51;94212.84;;;11.87;70.61
75219;BME280;63801;49.414;19.474;2022-10-16T05:04:51;94210.66;;;11.77;70.88
75219;BME280;63801;49.414;19.474;2022-10-16T05:06:52;94215.78;;;11.82;70.67
75219;BME280;63801;49.414;19.474;2022-10-16T05:08:52;94229.72;;;11.84;70.80
75219;BME280;63801;49.414;19.474;2022-10-16T05:10:52;94227.03;;;11.84;70.71
75219;BME280;63801;49.414;19.474;2022-10-16T05:12:53;94217.81;;;11.85;71.08
75219;BME280;63801;49.414;19.474;2022-10-16T05:14:53;94229.13;;;11.91;71.11
75219;BME280;63801;49.414;19.474;2022-10-16T05:16:59;94246.34;;;11.98;71.12
75219;BME280;63801;49.414;19.474;2022-10-16T05:18:59;94239.66;;;12.08;71.25
75219;BME280;63801;49.414;19.474;2022-10-16T05:21:00;94238.97;;;12.27;71.43
75219;BME280;63801;49.414;19.474;2022-10-16T05:23:00;94244.06;;;12.44;70.80
75219;BME280;63801;49.414;19.474;2022-10-16T05:25:00;94245.84;;;12.52;70.51
75219;BME280;63801;49.414;19.474;2022-10-16T05:27:01;94251.75;;;12.57;70.23
75219;BME280;63801;49.414;19.474;2022-10-16T05:29:01;94234.06;;;12.60;70.28
75219;BME280;63801;49.414;19.474;2022-10-16T05:31:08;94242.16;;;12.76;70.00
75219;BME280;63801;49.414;19.474;2022-10-16T05:33:09;94252.88;;;12.88;69.45
75219;BME280;63801;49.414;19.474;2022-10-16T05:35:09;94245.66;;;12.92;69.33
75219;BME280;63801;49.414;19.474;2022-10-16T05:37:10;94241.31;;;12.87;69.17
75219;BME280;63801;49.414;19.474;2022-10-16T05:39:13;94224.72;;;12.73;69.12
75219;BME280;63801;49.414;19.474;2022-10-16T05:41:13;94256.66;;;12.83;69.06
75219;BME280;63801;49.414;19.474;2022-10-16T05:43:14;94259.78;;;12.85;69.08
75219;BME280;63801;49.414;19.474;2022-10-16T05:45:14;94259.34;;;12.99;69.45
75219;BME280;63801;49.414;19.474;2022-10-16T05:47:14;94256.56;;;13.11;68.67
75219;BME280;63801;49.414;19.474;2022-10-16T05:49:15;94257.69;;;13.26;68.76
75219;BME280;63801;49.414;19.474;2022-10-16T05:51:15;94254.16;;;13.41;68.45
75219;BME280;63801;49.414;19.474;2022-10-16T05:53:15;94253.78;;;13.58;68.13
75219;BME280;63801;49.414;19.474;2022-10-16T05:55:16;94257.50;;;13.69;68.25
75219;BME280;63801;49.414;19.474;2022-10-16T05:57:16;94254.53;;;13.93;68.05
75219;BME280;63801;49.414;19.474;2022-10-16T05:59:16;94263.03;;;14.34;67.88
75219;BME280;63801;49.414;19.474;2022-10-16T06:01:18;94265.66;;;14.92;66.95
75219;BME280;63801;49.414;19.474;2022-10-16T06:03:19;94267.53;;;15.59;65.98
75219;BME280;63801;49.414;19.474;2022-10-16T06:05:19;94249.69;;;16.22;65.06
75219;BME280;63801;49.414;19.474;2022-10-16T06:07:20;94262.94;;;17.00;65.39
75219;BME280;63801;49.414;19.474;2022-10-16T06:09:21;94275.22;;;17.72;63.99
75219;BME280;63801;49.414;19.474;2022-10-16T06:11:23;94269.31;;;18.38;63.47
75219;BME280;63801;49.414;19.474;2022-10-16T06:13:23;94271.41;;;18.91;61.03
75219;BME280;63801;49.414;19.474;2022-10-16T06:15:24;94278.91;;;19.44;62.07
75219;BME280;63801;49.414;19.474;2022-10-16T06:17:24;94280.44;;;19.80;60.91
75219;BME280;63801;49.414;19.474;2022-10-16T06:19:24;94285.44;;;20.10;59.60
75219;BME280;63801;49.414;19.474;2022-10-16T06:21:26;94287.34;;;20.38;59.05
75219;BME280;63801;49.414;19.474;2022-10-16T06:23:28;94291.88;;;20.80;59.06
75219;BME280;63801;49.414;19.474;2022-10-16T06:25:28;94287.59;;;21.41;57.60
75219;BME280;63801;49.414;19.474;2022-10-16T06:27:28;94291.00;;;22.00;56.46
75219;BME280;63801;49.414;19.474;2022-10-16T06:29:29;94294.59;;;22.34;55.85
75219;BME280;63801;49.414;19.474;2022-10-16T06:31:29;94294.75;;;22.84;54.44
75219;BME280;63801;49.414;19.474;2022-10-16T06:33:33;94288.56;;;23.34;52.84
75219;BME280;63801;49.414;19.474;2022-10-16T06:35:33;94307.44;;;23.86;51.67
75219;BME280;63801;49.414;19.474;2022-10-16T06:37:34;94305.16;;;24.27;51.85
75219;BME280;63801;49.414;19.474;2022-10-16T06:39:34;94308.44;;;24.61;50.50
75219;BME280;63801;49.414;19.474;2022-10-16T06:41:34;94320.00;;;24.96;49.31
75219;BME280;63801;49.414;19.474;2022-10-16T06:43:35;94303.78;;;24.98;46.27
75219;BME280;63801;49.414;19.474;2022-10-16T06:45:35;94294.28;;;24.79;44.68
75219;BME280;63801;49.414;19.474;2022-10-16T06:47:35;94306.53;;;24.78;43.40
75219;BME280;63801;49.414;19.474;2022-10-16T06:49:36;94309.78;;;24.73;45.00
75219;BME280;63801;49.414;19.474;2022-10-16T06:51:36;94317.38;;;24.89;42.98
75219;BME280;63801;49.414;19.474;2022-10-16T06:53:44;94309.50;;;24.68;42.66
75219;BME280;63801;49.414;19.474;2022-10-16T06:55:44;94316.44;;;24.56;41.14
75219;BME280;63801;49.414;19.474;2022-10-16T06:57:47;94314.66;;;24.85;43.45
75219;BME280;63801;49.414;19.474;2022-10-16T06:59:47;94311.94;;;25.21;42.73
75219;BME280;63801;49.414;19.474;2022-10-16T07:01:48;94319.56;;;25.49;42.34
75219;BME280;63801;49.414;19.474;2022-10-16T07:03:48;94316.63;;;25.60;42.59
75219;BME280;63801;49.414;19.474;2022-10-16T07:05:49;94315.59;;;25.86;42.44
75219;BME280;63801;49.414;19.474;2022-10-16T07:07:49;94317.75;;;26.27;42.23
75219;BME280;63801;49.414;19.474;2022-10-16T07:09:50;94318.28;;;26.51;38.29
75219;BME280;63801;49.414;19.474;2022-10-16T07:11:50;94312.63;;;26.42;40.26
75219;BME280;63801;49.414;19.474;2022-10-16T07:13:51;94310.81;;;26.35;40.02
75219;BME280;63801;49.414;19.474;2022-10-16T07:15:51;94321.50;;;26.50;39.95
75219;BME280;63801;49.414;19.474;2022-10-16T07:17:52;94320.38;;;26.76;39.83
75219;BME280;63801;49.414;19.474;2022-10-16T07:19:52;94329.03;;;27.19;39.03
75219;BME280;63801;49.414;19.474;2022-10-16T07:21:53;94324.88;;;27.53;39.02
75219;BME280;63801;49.414;19.474;2022-10-16T07:23:55;94322.22;;;27.87;38.29
75219;BME280;63801;49.414;19.474;2022-10-16T07:25:55;94333.81;;;28.20;38.02
75219;BME280;63801;49.414;19.474;2022-10-16T07:27:56;94319.06;;;28.57;37.97
75219;BME280;63801;49.414;19.474;2022-10-16T07:29:56;94322.34;;;28.99;37.08
75219;BME280;63801;49.414;19.474;2022-10-16T07:31:57;94321.06;;;28.91;35.25
75219;BME280;63801;49.414;19.474;2022-10-16T07:33:59;94320.91;;;28.95;35.61
75219;BME280;63801;49.414;19.474;2022-10-16T07:35:59;94320.25;;;29.13;35.51
75219;BME280;63801;49.414;19.474;2022-10-16T07:37:59;94324.94;;;28.94;33.74
75219;BME280;63801;49.414;19.474;2022-10-16T07:40:00;94317.47;;;28.69;34.63
75219;BME280;63801;49.414;19.474;2022-10-16T07:42:00;94314.91;;;28.40;34.60
75219;BME280;63801;49.414;19.474;2022-10-16T07:44:00;94302.91;;;27.71;34.15
75219;BME280;63801;49.414;19.474;2022-10-16T07:46:01;94324.50;;;27.13;34.79
75219;BME280;63801;49.414;19.474;2022-10-16T07:48:01;94316.78;;;26.63;36.23
75219;BME280;63801;49.414;19.474;2022-10-16T07:50:02;94329.56;;;26.73;36.76
75219;BME280;63801;49.414;19.474;2022-10-16T07:52:03;94325.00;;;26.95;36.28
75219;BME280;63801;49.414;19.474;2022-10-16T07:54:03;94324.53;;;27.38;36.36
75219;BME280;63801;49.414;19.474;2022-10-16T07:56:06;94319.78;;;27.64;35.32
75219;BME280;63801;49.414;19.474;2022-10-16T07:58:07;94324.19;;;27.49;34.15
75219;BME280;63801;49.414;19.474;2022-10-16T08:00:08;94312.38;;;26.94;34.06
75219;BME280;63801;49.414;19.474;2022-10-16T08:02:13;94323.06;;;26.51;35.13
75219;BME280;63801;49.414;19.474;2022-10-16T08:04:13;94302.28;;;25.81;35.28
75219;BME280;63801;49.414;19.474;2022-10-16T08:06:14;94322.13;;;25.24;35.79
75219;BME280;63801;49.414;19.474;2022-10-16T08:08:16;94321.03;;;25.02;37.00
75219;BME280;63801;49.414;19.474;2022-10-16T08:10:19;94316.63;;;24.45;36.97
75219;BME280;63801;49.414;19.474;2022-10-16T08:12:19;94334.16;;;23.89;37.71
75219;BME280;63801;49.414;19.474;2022-10-16T08:14:20;94337.94;;;23.18;38.82
75219;BME280;63801;49.414;19.474;2022-10-16T08:16:20;94346.78;;;22.68;39.50
75219;BME280;63801;49.414;19.474;2022-10-16T08:18:21;94338.38;;;22.11;40.33
75219;BME280;63801;49.414;19.474;2022-10-16T08:20:22;94342.19;;;21.76;40.81
75219;BME280;63801;49.414;19.474;2022-10-16T08:22:22;94338.59;;;21.31;41.80
75219;BME280;63801;49.414;19.474;2022-10-16T08:24:22;94355.66;;;20.80;43.10
75219;BME280;63801;49.414;19.474;2022-10-16T08:26:22;94349.19;;;20.25;44.24
75219;BME280;63801;49.414;19.474;2022-10-16T08:28:23;94346.50;;;19.75;44.72
75219;BME280;63801;49.414;19.474;2022-10-16T08:30:24;94347.22;;;19.29;45.55
75219;BME280;63801;49.414;19.474;2022-10-16T08:32:24;94330.38;;;18.99;46.85
75219;BME280;63801;49.414;19.474;2022-10-16T08:34:24;94346.34;;;18.90;47.55
75219;BME280;63801;49.414;19.474;2022-10-16T08:36:25;94374.84;;;18.85;47.94
75219;BME280;63801;49.414;19.474;2022-10-16T08:38:25;94364.31;;;18.91;48.23
75219;BME280;63801;49.414;19.474;2022-10-16T08:40:27;94367.09;;;19.12;47.96
75219;BME280;63801;49.414;19.474;2022-10-16T08:45:27;94351.97;;;19.68;47.05
75219;BME280;63801;49.414;19.474;2022-10-16T08:48:04;94369.56;;;19.67;46.06
75219;BME280;63801;49.414;19.474;2022-10-16T08:50:12;94353.91;;;19.57;47.28
75219;BME280;63801;49.414;19.474;2022-10-16T08:52:13;94353.50;;;19.34;47.25
75219;BME280;63801;49.414;19.474;2022-10-16T08:54:29;94351.47;;;19.02;48.36
75219;BME280;63801;49.414;19.474;2022-10-16T08:56:31;94360.84;;;18.98;48.33
75219;BME280;63801;49.414;19.474;2022-10-16T08:58:33;94360.38;;;18.78;48.27
75219;BME280;63801;49.414;19.474;2022-10-16T09:00:33;94372.38;;;18.59;49.40
75219;BME280;63801;49.414;19.474;2022-10-16T09:02:37;94373.84;;;18.42;49.20
75219;BME280;63801;49.414;19.474;2022-10-16T09:04:48;94387.81;;;18.27;49.81
75219;BME280;63801;49.414;19.474;2022-10-16T09:06:56;94383.31;;;17.98;50.26
75219;BME280;63801;49.414;19.474;2022-10-16T09:18:20;94367.47;;;17.22;52.12
75219;BME280;63801;49.414;19.474;2022-10-16T09:20:50;94384.41;;;17.05;52.47
75219;BME280;63801;49.414;19.474;2022-10-16T09:25:16;94391.66;;;16.90;53.08
75219;BME280;63801;49.414;19.474;2022-10-16T09:27:17;94386.56;;;16.85;53.27
75219;BME280;63801;49.414;19.474;2022-10-16T09:29:19;94378.78;;;16.87;53.60
75219;BME280;63801;49.414;19.474;2022-10-16T09:31:21;94395.91;;;16.88;53.58
75219;BME280;63801;49.414;19.474;2022-10-16T09:33:25;94388.09;;;16.86;53.64
75219;BME280;63801;49.414;19.474;2022-10-16T09:35:36;94386.91;;;16.84;53.55
75219;BME280;63801;49.414;19.474;2022-10-16T09:37:37;94384.94;;;16.81;53.53
75219;BME280;63801;49.414;19.474;2022-10-16T09:39:52;94386.91;;;16.84;54.16
75219;BME280;63801;49.414;19.474;2022-10-16T09:41:53;94372.13;;;16.81;54.26
75219;BME280;63801;49.414;19.474;2022-10-16T09:43:57;94373.63;;;17.12;54.66
75219;BME280;63801;49.414;19.474;2022-10-16T09:48:48;94381.72;;;17.93;52.45
75219;BME280;63801;49.414;19.474;2022-10-16T09:50:57;94392.38;;;18.12;51.71
75219;BME280;63801;49.414;19.474;2022-10-16T09:53:11;94385.09;;;18.30;50.70
75219;BME280;63801;49.414;19.474;2022-10-16T09:55:17;94364.88;;;18.42;49.74
75219;BME280;63801;49.414;19.474;2022-10-16T09:57:17;94371.25;;;18.64;49.84
75219;BME280;63801;49.414;19.474;2022-10-16T09:59:20;94377.19;;;18.83;49.24
75219;BME280;63801;49.414;19.474;2022-10-16T10:01:22;94379.19;;;18.97;48.01
75219;BME280;63801;49.414;19.474;2022-10-16T10:03:38;94390.91;;;19.01;47.47
75219;BME280;63801;49.414;19.474;2022-10-16T10:05:39;94383.91;;;19.11;47.23
75219;BME280;63801;49.414;19.474;2022-10-16T10:07:43;94383.53;;;19.26;46.21
75219;BME280;63801;49.414;19.474;2022-10-16T10:09:46;94387.47;;;19.29;46.91
75219;BME280;63801;49.414;19.474;2022-10-16T10:11:50;94378.06;;;19.26;46.73
75219;BME280;63801;49.414;19.474;2022-10-16T10:13:50;94390.22;;;19.29;46.58
75219;BME280;63801;49.414;19.474;2022-10-16T10:15:51;94383.53;;;19.23;47.09
75219;BME280;63801;49.414;19.474;2022-10-16T10:17:56;94387.84;;;19.20;45.69
75219;BME280;63801;49.414;19.474;2022-10-16T10:19:59;94396.03;;;19.20;45.56
75219;BME280;63801;49.414;19.474;2022-10-16T10:22:16;94401.50;;;19.20;46.42
75219;BME280;63801;49.414;19.474;2022-10-16T10:24:18;94397.97;;;19.16;46.04
75219;BME280;63801;49.414;19.474;2022-10-16T10:26:24;94396.00;;;19.17;47.14
75219;BME280;63801;49.414;19.474;2022-10-16T10:28:45;94401.91;;;19.29;46.94
75219;BME280;63801;49.414;19.474;2022-10-16T10:31:14;94393.31;;;19.35;47.03
75219;BME280;63801;49.414;19.474;2022-10-16T10:33:47;94404.63;;;19.29;46.47
75219;BME280;63801;49.414;19.474;2022-10-16T10:38:38;94380.81;;;19.26;47.06
75219;BME280;63801;49.414;19.474;2022-10-16T10:40:51;94401.53;;;19.24;47.16
75219;BME280;63801;49.414;19.474;2022-10-16T10:43:01;94411.19;;;18.97;47.51
75219;BME280;63801;49.414;19.474;2022-10-16T10:45:26;94411.91;;;18.79;47.86
75219;BME280;63801;49.414;19.474;2022-10-16T10:56:45;94406.38;;;18.65;48.18
75219;BME280;63801;49.414;19.474;2022-10-16T11:01:15;94412.28;;;18.81;48.42
75219;BME280;63801;49.414;19.474;2022-10-16T11:03:42;94419.38;;;18.93;48.23
75219;BME280;63801;49.414;19.474;2022-10-16T11:08:19;94404.94;;;19.00;48.09
75219;BME280;63801;49.414;19.474;2022-10-16T11:10:25;94399.06;;;18.94;47.88
75219;BME280;63801;49.414;19.474;2022-10-16T11:12:49;94398.69;;;18.92;48.46
75219;BME280;63801;49.414;19.474;2022-10-16T11:15:10;94383.44;;;18.91;48.56
75219;BME280;63801;49.414;19.474;2022-10-16T11:17:23;94410.38;;;18.89;48.74
75219;BME280;63801;49.414;19.474;2022-10-16T11:19:49;94408.81;;;18.88;49.23
75219;BME280;63801;49.414;19.474;2022-10-16T11:22:00;94415.50;;;19.05;49.35
75219;BME280;63801;49.414;19.474;2022-10-16T11:24:09;94411.63;;;19.06;48.81